Time;durP1;ratioP1;P1;durP2;ratioP2;P2;SDS_P1;SDS_P2;PMS_P1;PMS_P2;Temp;Humidity;BMP_temperature;BMP_pressure;BME280_temperature;BME280_humidity;BME280_pressure;Samples;Min_cycle;Max_cycle;Signal;HPM_P1;HPM_P2
2024/03/30 00:00:46;;;;;;;;;;;;;;;-144.99;100.00;52407.31;5024775;28;19983;-64
2024/03/30 00:03:12;;;;;;;;;;;;;;;-144.99;100.00;52448.09;5026563;28;20402;-63
2024/03/30 00:05:37;;;;;;;;;;;;;;;-144.99;100.00;52437.91;5027044;28;19929;-64
2024/03/30 00:08:04;;;;;;;;;;;;;;;-144.99;100.00;52441.97;5022155;28;19930;-64
2024/03/30 00:10:30;;;;;;;;;;;;;;;-144.99;100.00;52456.25;5023825;28;20003;-63
2024/03/30 00:12:58;;;;;;;;;;;;;;;-144.99;100.00;52460.31;5021630;28;20311;-66
2024/03/30 00:15:27;;;;;;;;;;;;;;;-144.99;100.00;52437.91;5019639;28;19929;-66
2024/03/30 00:17:54;;;;;;;;;;;;;;;-144.99;100.00;52456.25;5026538;28;19960;-66
2024/03/30 00:20:21;;;;;;;;;;;;;;;-144.99;100.00;52452.16;5026072;28;20012;-68
2024/03/30 00:22:47;;;;;;;;;;;;;;;-144.99;100.00;52439.94;5025055;28;20319;-68
2024/03/30 00:25:13;;;;;;;;;;;;;;;-144.99;100.00;52444.03;5026457;28;19948;-68
2024/03/30 00:27:39;;;;;;;;;;;;;;;-144.99;100.00;52431.78;5024119;28;19929;-67
2024/03/30 00:30:06;;;;;;;;;;;;;;;-144.99;100.00;52435.88;5024849;28;20048;-67
2024/03/30 00:32:34;;;;;;;;;;;;;;;-144.99;100.00;52444.03;5019336;28;19937;-66
2024/03/30 00:34:59;;;;;;;;;;;;;;;-144.99;100.00;52456.25;5023828;28;19986;-66
2024/03/30 00:37:26;;;;;;;;;;;;;;;-144.99;100.00;52458.28;5026445;28;19983;-67
2024/03/30 00:39:51;;;;;;;;;;;;;;;-144.99;100.00;52444.03;5024589;28;19925;-66
2024/03/30 00:42:18;;;;;;;;;;;;;;;-144.99;100.00;52437.91;5024801;28;19964;-66
2024/03/30 00:44:44;;;;;;;;;;;;;;;-144.99;100.00;52448.09;5025711;28;20017;-64
2024/03/30 00:47:10;;;;;;;;;;;;;;;-144.99;100.00;52484.78;5025819;28;20458;-62
2024/03/30 00:49:37;;;;;;;;;;;;;;;-144.99;100.00;52452.16;5021139;28;20463;-63
2024/03/30 00:52:05;;;;;;;;;;;;;;;-144.99;100.00;52517.41;5019717;28;19925;-63
2024/03/30 00:54:30;;;;;;;;;;;;;;;-144.99;100.00;52452.16;5020121;28;19933;-63
2024/03/30 00:56:57;;;;;;;;;;;;;;;-144.99;100.00;52456.25;5014133;28;19929;-63
2024/03/30 00:59:22;;;;;;;;;;;;;;;-144.99;100.00;52415.47;5018473;28;20470;-63
2024/03/30 01:01:53;;;;;;;;;;;;;;;-144.99;100.00;52411.41;5026075;28;20004;-67
2024/03/30 01:04:18;;;;;;;;;;;;;;;-144.99;100.00;52444.03;5025467;28;19971;-67
2024/03/30 01:06:46;;;;;;;;;;;;;;;-144.99;100.00;52444.03;5019764;28;20379;-65
2024/03/30 01:09:15;;;;;;;;;;;;;;;-144.99;100.00;52423.63;5021619;28;19988;-66
2024/03/30 01:11:41;;;;;;;;;;;;;;;-144.99;100.00;52452.16;5015020;28;20032;-67
2024/03/30 01:14:07;;;;;;;;;;;;;;;-144.99;100.00;52456.25;5022855;28;20280;-66
2024/03/30 01:16:34;;;;;;;;;;;;;;;-144.99;100.00;52439.94;5023430;28;19929;-67
2024/03/30 01:19:00;;;;;;;;;;;;;;;-144.99;100.00;52450.13;5025450;28;19929;-67
2024/03/30 01:21:26;;;;;;;;;;;;;;;-144.99;100.00;52433.81;5015706;28;20016;-66
2024/03/30 01:23:54;;;;;;;;;;;;;;;-144.99;100.00;52421.59;5018661;28;20449;-66
2024/03/30 01:26:21;;;;;;;;;;;;;;;-144.99;100.00;52439.94;5027662;28;20008;-66
2024/03/30 01:28:46;;;;;;;;;;;;;;;-144.99;100.00;52417.53;5023459;28;19968;-63
2024/03/30 01:31:13;;;;;;;;;;;;;;;-144.99;100.00;52423.63;5022264;28;20425;-63
2024/03/30 01:33:39;;;;;;;;;;;;;;;-144.99;100.00;52452.16;5021278;28;20027;-64
2024/03/30 01:36:06;;;;;;;;;;;;;;;-144.99;100.00;52415.47;5023676;28;20013;-63
2024/03/30 01:38:32;;;;;;;;;;;;;;;-144.99;100.00;52419.56;5029595;28;19929;-65
2024/03/30 01:41:00;;;;;;;;;;;;;;;-144.99;100.00;52427.72;5030061;28;20003;-65
2024/03/30 01:43:25;;;;;;;;;;;;;;;-144.99;100.00;52446.06;5024771;28;20024;-66
2024/03/30 01:45:53;;;;;;;;;;;;;;;-144.99;100.00;52423.63;5027949;28;20023;-66
2024/03/30 01:48:19;;;;;;;;;;;;;;;-144.99;100.00;52448.09;5023131;28;20012;-66
2024/03/30 01:50:46;;;;;;;;;;;;;;;-144.99;100.00;52437.91;5023608;28;20233;-65
2024/03/30 01:53:12;;;;;;;;;;;;;;;-144.99;100.00;52444.03;5029544;28;19933;-62
2024/03/30 01:55:41;;;;;;;;;;;;;;;-144.99;100.00;52462.34;5023269;28;19928;-63
2024/03/30 01:58:08;;;;;;;;;;;;;;;-144.99;100.00;52462.34;5026716;28;20379;-68
2024/03/30 02:00:35;;;;;;;;;;;;;;;-144.99;100.00;52439.94;5023228;28;19929;-64
2024/03/30 02:03:01;;;;;;;;;;;;;;;-144.99;100.00;52472.56;5019669;28;20434;-62
2024/03/30 02:05:28;;;;;;;;;;;;;;;-144.99;100.00;52423.63;5029905;28;19968;-63
2024/03/30 02:07:57;;;;;;;;;;;;;;;-144.99;100.00;52444.03;5027662;28;20087;-65
2024/03/30 02:10:23;;;;;;;;;;;;;;;-144.99;100.00;52488.84;5019546;28;19929;-70
2024/03/30 02:12:49;;;;;;;;;;;;;;;-144.99;100.00;52407.31;5026278;28;20373;-60
2024/03/30 02:15:17;;;;;;;;;;;;;;;-144.99;100.00;52460.31;5028796;28;20028;-60
2024/03/30 02:17:43;;;;;;;;;;;;;;;-144.99;100.00;52452.16;5023002;28;19925;-61
2024/03/30 02:20:09;;;;;;;;;;;;;;;-144.99;100.00;52441.97;5027697;28;20398;-60
2024/03/30 02:22:47;;;;;;;;;;;;;;;-144.99;100.00;52468.47;4857837;28;9999977;-60
2024/03/30 02:25:15;;;;;;;;;;;;;;;-144.99;100.00;52468.47;5019042;28;19926;-59
2024/03/30 02:27:41;;;;;;;;;;;;;;;-144.99;100.00;52464.41;5023499;28;19929;-60
2024/03/30 02:30:10;;;;;;;;;;;;;;;-144.99;100.00;52456.25;5018902;28;19976;-61
2024/03/30 02:32:35;;;;;;;;;;;;;;;-144.99;100.00;52439.94;5029329;28;19991;-60
2024/03/30 02:35:02;;;;;;;;;;;;;;;-144.99;100.00;52444.03;5030084;28;19996;-60
2024/03/30 02:37:27;;;;;;;;;;;;;;;-144.99;100.00;52448.09;5022984;28;19986;-61
2024/03/30 02:39:54;;;;;;;;;;;;;;;-144.99;100.00;52452.16;5030254;28;19929;-60
2024/03/30 02:42:21;;;;;;;;;;;;;;;-144.99;100.00;52464.41;5020217;28;19925;-61
2024/03/30 02:44:47;;;;;;;;;;;;;;;-144.99;100.00;52480.72;5031282;28;19925;-60
2024/03/30 02:47:13;;;;;;;;;;;;;;;-144.99;100.00;52437.91;5025575;28;19932;-60
2024/03/30 02:49:39;;;;;;;;;;;;;;;-144.99;100.00;52411.41;5031339;28;20028;-61
2024/03/30 02:52:05;;;;;;;;;;;;;;;-144.99;100.00;52464.41;5022577;28;19956;-61
2024/03/30 02:54:31;;;;;;;;;;;;;;;-144.99;100.00;52472.56;5031314;28;20024;-62
2024/03/30 02:56:57;;;;;;;;;;;;;;;-144.99;100.00;52439.94;5030921;28;19983;-60
2024/03/30 02:59:24;;;;;;;;;;;;;;;-144.99;100.00;52425.66;5029773;28;19972;-60
2024/03/30 03:01:50;;;;;;;;;;;;;;;-144.99;100.00;52468.47;5019913;28;19983;-60
2024/03/30 03:04:16;;;;;;;;;;;;;;;-144.99;100.00;52407.31;5027413;28;19964;-64
2024/03/30 03:06:42;;;;;;;;;;;;;;;-144.99;100.00;52391.03;5029820;28;19934;-63
2024/03/30 03:09:08;;;;;;;;;;;;;;;-144.99;100.00;52448.09;5026889;28;19973;-63
2024/03/30 03:11:34;;;;;;;;;;;;;;;-144.99;100.00;52501.09;5024195;28;19925;-71
2024/03/30 03:14:01;;;;;;;;;;;;;;;-144.99;100.00;52411.41;5027663;28;19982;-72
2024/03/30 03:16:28;;;;;;;;;;;;;;;-144.99;100.00;52446.06;5028009;28;20334;-69
2024/03/30 03:18:54;;;;;;;;;;;;;;;-144.99;100.00;52427.72;5023664;28;20022;-70
2024/03/30 03:21:20;;;;;;;;;;;;;;;-144.99;100.00;52411.41;5030705;28;19936;-70
2024/03/30 03:23:46;;;;;;;;;;;;;;;-144.99;100.00;52501.09;5022329;28;19943;-70
2024/03/30 03:26:12;;;;;;;;;;;;;;;-144.99;100.00;52460.31;5029070;28;20384;-69
2024/03/30 03:28:38;;;;;;;;;;;;;;;-144.99;100.00;52464.41;5023501;28;19979;-70
2024/03/30 03:31:04;;;;;;;;;;;;;;;-144.99;100.00;52452.16;5027150;28;19986;-71
2024/03/30 03:33:38;;;;;;;;;;;;;;;-144.99;100.00;52448.09;5030050;28;20375;-72
2024/03/30 03:36:03;;;;;;;;;;;;;;;-144.99;100.00;52431.78;5027469;28;20024;-72
2024/03/30 03:38:30;;;;;;;;;;;;;;;-144.99;100.00;52427.72;5029885;28;20012;-72
2024/03/30 03:40:56;;;;;;;;;;;;;;;-144.99;100.00;52441.97;5030155;28;20046;-66
2024/03/30 03:43:22;;;;;;;;;;;;;;;-144.99;100.00;52419.56;5029876;28;20430;-67
2024/03/30 03:45:48;;;;;;;;;;;;;;;-144.99;100.00;52439.94;5029768;28;19925;-66
2024/03/30 03:48:15;;;;;;;;;;;;;;;-144.99;100.00;52431.78;5027742;28;19983;-68
2024/03/30 03:50:42;;;;;;;;;;;;;;;-144.99;100.00;52415.47;5024427;28;19929;-66
2024/03/30 03:53:09;;;;;;;;;;;;;;;-144.99;100.00;52448.09;5029637;28;19925;-67
2024/03/30 03:55:34;;;;;;;;;;;;;;;-144.99;100.00;52415.47;5038064;22;19925;-69
2024/03/30 03:58:01;;;;;;;;;;;;;;;-144.99;100.00;52423.63;5019329;28;19971;-69
2024/03/30 04:00:26;;;;;;;;;;;;;;;-144.99;100.00;52470.50;5048643;28;20183;-69
2024/03/30 04:02:53;;;;;;;;;;;;;;;-144.99;100.00;52444.03;5058478;28;20467;-68
2024/03/30 04:05:18;;;;;;;;;;;;;;;-144.99;100.00;52454.22;5046324;28;20397;-69
2024/03/30 04:07:46;;;;;;;;;;;;;;;-144.99;100.00;52439.94;5041976;28;19925;-69
2024/03/30 04:10:15;;;;;;;;;;;;;;;-144.99;100.00;52397.13;5039859;28;19928;-69
2024/03/30 04:12:41;;;;;;;;;;;;;;;-144.99;100.00;52407.31;5042876;28;19929;-69
2024/03/30 04:15:07;;;;;;;;;;;;;;;-144.99;100.00;52435.88;5039586;28;19928;-68
2024/03/30 04:17:33;;;;;;;;;;;;;;;-144.99;100.00;52448.09;5038974;28;19978;-68
2024/03/30 04:19:59;;;;;;;;;;;;;;;-144.99;100.00;52448.09;5033826;28;19971;-69
2024/03/30 04:22:25;;;;;;;;;;;;;;;-144.99;100.00;52423.63;5048532;28;20378;-68
2024/03/30 04:24:52;;;;;;;;;;;;;;;-144.99;100.00;52441.97;5048975;28;19963;-69
2024/03/30 04:27:19;;;;;;;;;;;;;;;-144.99;100.00;52415.47;5041485;28;19973;-68
2024/03/30 04:29:44;;;;;;;;;;;;;;;-144.99;100.00;52427.72;5059431;28;19971;-67
2024/03/30 04:32:11;;;;;;;;;;;;;;;-144.99;100.00;52464.41;5048110;28;19976;-68
2024/03/30 04:34:36;;;;;;;;;;;;;;;-144.99;100.00;52427.72;5053208;28;20382;-68
2024/03/30 04:37:03;;;;;;;;;;;;;;;-144.99;100.00;52427.72;5046772;28;19957;-68
2024/03/30 04:39:32;;;;;;;;;;;;;;;-144.99;100.00;52439.94;5044006;28;19929;-68
2024/03/30 04:42:02;;;;;;;;;;;;;;;-144.99;100.00;52415.47;5044078;28;20112;-67
2024/03/30 04:44:28;;;;;;;;;;;;;;;-144.99;100.00;52431.78;5045784;28;20341;-67
2024/03/30 04:46:54;;;;;;;;;;;;;;;-144.99;100.00;52391.03;5048436;28;19929;-67
2024/03/30 04:49:20;;;;;;;;;;;;;;;-144.99;100.00;52460.31;5038370;28;19980;-69
2024/03/30 04:51:46;;;;;;;;;;;;;;;-144.99;100.00;52413.44;5036762;28;19960;-68
2024/03/30 04:54:12;;;;;;;;;;;;;;;-144.99;100.00;52415.47;5058622;28;20039;-69
2024/03/30 04:56:38;;;;;;;;;;;;;;;-144.99;100.00;52415.47;5056035;28;20409;-69
2024/03/30 04:59:08;;;;;;;;;;;;;;;-144.99;100.00;52439.94;5052234;28;19983;-70
2024/03/30 05:01:35;;;;;;;;;;;;;;;-144.99;100.00;52462.34;5050775;28;20349;-70
2024/03/30 05:04:00;;;;;;;;;;;;;;;-144.99;100.00;52439.94;5039580;28;20015;-69
2024/03/30 05:06:27;;;;;;;;;;;;;;;-144.99;100.00;52399.19;5039739;28;20019;-69
2024/03/30 05:08:52;;;;;;;;;;;;;;;-144.99;100.00;52437.91;5036613;28;20383;-70
2024/03/30 05:11:20;;;;;;;;;;;;;;;-144.99;100.00;52423.63;5039912;28;20320;-69
2024/03/30 05:13:46;;;;;;;;;;;;;;;-144.99;100.00;52423.63;5047227;28;19932;-63
2024/03/30 05:16:16;;;;;;;;;;;;;;;-144.99;100.00;52419.56;5041787;28;19982;-63
2024/03/30 05:18:42;;;;;;;;;;;;;;;-144.99;100.00;52421.59;5047954;28;20028;-64
2024/03/30 05:21:08;;;;;;;;;;;;;;;-144.99;100.00;52472.56;5046608;28;20310;-63
2024/03/30 05:23:38;;;;;;;;;;;;;;;-144.99;100.00;52439.94;5040632;28;20456;-63
2024/03/30 05:26:04;;;;;;;;;;;;;;;-144.99;100.00;52444.03;5045041;28;19925;-64
2024/03/30 05:28:31;;;;;;;;;;;;;;;-144.99;100.00;52456.25;5036497;28;19933;-63
2024/03/30 05:30:58;;;;;;;;;;;;;;;-144.99;100.00;52439.94;5044008;28;20521;-64
2024/03/30 05:33:26;;;;;;;;;;;;;;;-144.99;100.00;52468.47;5037060;28;19925;-64
2024/03/30 05:35:52;;;;;;;;;;;;;;;-144.99;100.00;52454.22;5055304;28;20344;-65
2024/03/30 05:38:19;;;;;;;;;;;;;;;-144.99;100.00;52407.31;5049912;28;21173;-65
2024/03/30 05:40:46;;;;;;;;;;;;;;;-144.99;100.00;52456.25;5054557;28;19994;-64
2024/03/30 05:43:13;;;;;;;;;;;;;;;-144.99;100.00;52415.47;5041101;28;19936;-65
2024/03/30 05:45:39;;;;;;;;;;;;;;;-144.99;100.00;52446.06;5048090;28;19937;-64
2024/03/30 05:48:06;;;;;;;;;;;;;;;-144.99;100.00;52464.41;5048248;28;19928;-64
2024/03/30 05:50:34;;;;;;;;;;;;;;;-144.99;100.00;52460.31;5041105;28;20351;-69
2024/03/30 05:53:01;;;;;;;;;;;;;;;-144.99;100.00;52462.34;5045426;28;19959;-67
2024/03/30 05:55:26;;;;;;;;;;;;;;;-144.99;100.00;52439.94;5052320;28;19928;-66
2024/03/30 05:57:54;;;;;;;;;;;;;;;-144.99;100.00;52452.16;5050724;28;19979;-67
2024/03/30 06:00:20;;;;;;;;;;;;;;;-144.99;100.00;52441.97;5050148;28;20306;-68
2024/03/30 06:02:47;;;;;;;;;;;;;;;-144.99;100.00;52415.47;5048217;28;19928;-69
2024/03/30 06:05:13;;;;;;;;;;;;;;;-144.99;100.00;52456.25;5050193;28;20001;-67
2024/03/30 06:07:41;;;;;;;;;;;;;;;-144.99;100.00;52431.78;5061944;28;19936;-67
2024/03/30 06:10:08;;;;;;;;;;;;;;;-144.99;100.00;52417.53;5045906;28;19925;-66
2024/03/30 06:12:34;;;;;;;;;;;;;;;-144.99;100.00;52450.13;5045328;28;19925;-71
2024/03/30 06:15:00;;;;;;;;;;;;;;;-144.99;100.00;52439.94;5046640;28;20371;-69
2024/03/30 06:17:27;;;;;;;;;;;;;;;-144.99;100.00;52427.72;5037160;28;19979;-69
2024/03/30 06:19:52;;;;;;;;;;;;;;;-144.99;100.00;52437.91;5037574;28;19995;-69
2024/03/30 06:22:19;;;;;;;;;;;;;;;-144.99;100.00;52423.63;5049392;28;20355;-69
2024/03/30 06:24:45;;;;;;;;;;;;;;;-144.99;100.00;52448.09;5046029;28;19929;-67
2024/03/30 06:27:12;;;;;;;;;;;;;;;-144.99;100.00;52452.16;5061445;28;19994;-68
2024/03/30 06:29:39;;;;;;;;;;;;;;;-144.99;100.00;52370.63;5036385;28;20400;-70
2024/03/30 06:32:05;;;;;;;;;;;;;;;-144.99;100.00;52415.47;5059409;28;20374;-70
2024/03/30 06:34:31;;;;;;;;;;;;;;;-144.99;100.00;52452.16;5050074;28;19924;-68
2024/03/30 06:36:58;;;;;;;;;;;;;;;-144.99;100.00;52431.78;5042182;28;20378;-68
2024/03/30 06:39:23;;;;;;;;;;;;;;;-144.99;100.00;52429.75;5036365;28;19980;-73
2024/03/30 06:44:36;;;;;;;;;;;;;;;-144.99;100.00;52415.47;5061715;28;19931;-74
2024/03/30 06:47:01;;;;;;;;;;;;;;;-144.99;100.00;52448.09;5062382;28;19928;-74
2024/03/30 06:49:28;;;;;;;;;;;;;;;-144.99;100.00;52439.94;5054620;28;19955;-73
2024/03/30 06:51:54;;;;;;;;;;;;;;;-144.99;100.00;52444.03;5057501;28;20367;-74
2024/03/30 06:54:20;;;;;;;;;;;;;;;-144.99;100.00;52382.88;5043644;28;19924;-72
2024/03/30 06:56:46;;;;;;;;;;;;;;;-144.99;100.00;52460.31;5061828;28;20452;-66
2024/03/30 06:59:13;;;;;;;;;;;;;;;-144.99;100.00;52423.63;5068681;28;19935;-63
2024/03/30 07:01:40;;;;;;;;;;;;;;;-144.99;100.00;52452.16;5060145;28;19929;-62
2024/03/30 07:04:05;;;;;;;;;;;;;;;-144.99;100.00;52423.63;5039412;28;19929;-63
2024/03/30 07:06:32;;;;;;;;;;;;;;;-144.99;100.00;52378.78;5047636;28;19925;-63
2024/03/30 07:08:57;;;;;;;;;;;;;;;-144.99;100.00;52419.56;5059292;28;19986;-62
2024/03/30 07:11:24;;;;;;;;;;;;;;;-144.99;100.00;52415.47;5044037;28;20337;-62
2024/03/30 07:13:50;;;;;;;;;;;;;;;-144.99;100.00;52382.88;5050421;28;19964;-63
2024/03/30 07:16:18;;;;;;;;;;;;;;;-144.99;100.00;52407.31;5048136;28;20018;-63
2024/03/30 07:18:43;;;;;;;;;;;;;;;-144.99;100.00;52413.44;5043126;28;19929;-70
2024/03/30 07:21:10;;;;;;;;;;;;;;;-144.99;98.92;52407.31;5058664;28;19951;-73
2024/03/30 07:23:35;;;;;;;;;;;;;;;-144.99;98.49;52391.03;5059079;28;19933;-73
2024/03/30 07:26:03;;;;;;;;;;;;;;;-144.99;98.32;52407.31;5042431;28;20012;-73
2024/03/30 07:28:29;;;;;;;;;;;;;;;-144.99;96.61;52391.03;5066153;28;20284;-73
2024/03/30 07:31:00;;;;;;;;;;;;;;;-144.99;96.28;52374.72;5048039;28;19925;-73
2024/03/30 07:33:27;;;;;;;;;;;;;;;-144.99;95.65;52407.31;5051301;28;19929;-74
2024/03/30 07:35:54;;;;;;;;;;;;;;;-144.99;95.04;52395.09;5050097;28;19925;-69
2024/03/30 07:38:23;;;;;;;;;;;;;;;-144.99;94.99;52403.25;5058368;28;19929;-69
2024/03/30 07:40:49;;;;;;;;;;;;;;;-144.99;94.99;52403.25;5058848;28;19988;-69
2024/03/30 07:43:15;;;;;;;;;;;;;;;-144.99;94.38;52399.19;5055306;28;20083;-68
2024/03/30 07:45:41;;;;;;;;;;;;;;;-144.99;93.54;52380.84;5042816;28;20442;-64
2024/03/30 07:48:08;;;;;;;;;;;;;;;-144.99;92.96;52386.94;5036890;28;19929;-66
2024/03/30 07:50:35;;;;;;;;;;;;;;;-144.99;92.14;52370.63;5037151;28;20249;-63
2024/03/30 07:53:02;;;;;;;;;;;;;;;-144.99;91.47;52378.78;5057719;28;20358;-66
2024/03/30 07:55:28;;;;;;;;;;;;;;;-144.99;90.77;52382.88;5049785;28;19975;-67
2024/03/30 07:57:55;;;;;;;;;;;;;;;-144.99;90.35;52362.50;5056141;28;19968;-67
2024/03/30 08:00:20;;;;;;;;;;;;;;;-144.99;89.79;52374.72;5063290;28;19977;-69
2024/03/30 08:02:46;;;;;;;;;;;;;;;-144.99;89.20;52333.94;5060471;28;19924;-68
2024/03/30 08:05:12;;;;;;;;;;;;;;;-144.99;88.66;52374.72;5043483;28;19964;-68
2024/03/30 08:07:40;;;;;;;;;;;;;;;-144.99;88.38;52395.09;5062005;28;19983;-68
2024/03/30 08:10:06;;;;;;;;;;;;;;;-144.99;88.32;52378.78;5049177;28;20365;-68
2024/03/30 08:12:33;;;;;;;;;;;;;;;-144.99;88.35;52403.25;5062910;28;19925;-68
2024/03/30 08:14:58;;;;;;;;;;;;;;;-144.99;88.28;52346.19;5049927;28;20007;-68
2024/03/30 08:17:25;;;;;;;;;;;;;;;-144.99;87.84;52370.63;5035428;28;20025;-68
2024/03/30 08:19:50;;;;;;;;;;;;;;;-144.99;86.09;52378.78;5052847;28;20392;-68
2024/03/30 08:22:17;;;;;;;;;;;;;;;-144.99;85.80;52407.31;5053604;28;19925;-68
2024/03/30 08:24:44;;;;;;;;;;;;;;;-144.99;85.41;52331.91;5050136;28;19972;-69
2024/03/30 08:27:10;;;;;;;;;;;;;;;-144.99;84.21;52362.50;5041142;28;20314;-63
2024/03/30 08:29:36;;;;;;;;;;;;;;;-144.99;83.39;52370.63;5048646;28;20107;-75
2024/03/30 08:32:02;;;;;;;;;;;;;;;-144.99;82.95;52362.50;5048248;28;19980;-68
2024/03/30 08:34:28;;;;;;;;;;;;;;;-144.99;82.87;52403.25;5049884;28;19930;-68
2024/03/30 08:36:54;;;;;;;;;;;;;;;-144.99;82.98;52333.94;5051746;28;20011;-69
2024/03/30 08:39:20;;;;;;;;;;;;;;;-144.99;82.63;52382.88;5055939;28;19924;-69
2024/03/30 08:41:48;;;;;;;;;;;;;;;-144.99;83.09;52325.81;5054619;28;20035;-68
2024/03/30 08:44:14;;;;;;;;;;;;;;;-144.99;82.93;52346.19;5061032;28;19940;-68
2024/03/30 08:46:40;;;;;;;;;;;;;;;-144.99;82.70;52340.06;5044872;28;19979;-69
2024/03/30 08:49:07;;;;;;;;;;;;;;;-144.99;82.97;52329.88;5047843;28;19933;-69
2024/03/30 08:51:33;;;;;;;;;;;;;;;-144.99;83.05;52352.28;5035194;28;19924;-70
2024/03/30 08:53:59;;;;;;;;;;;;;;;-144.99;82.86;52352.28;5040371;28;19970;-68
2024/03/30 08:56:26;;;;;;;;;;;;;;;-144.99;83.23;52378.78;5051404;28;20280;-68
2024/03/30 08:58:53;;;;;;;;;;;;;;;-144.99;82.58;52378.78;5042913;28;19978;-69
2024/03/30 09:01:19;;;;;;;;;;;;;;;-144.99;82.43;52313.56;5054635;28;20041;-69
2024/03/30 09:03:44;;;;;;;;;;;;;;;-144.99;81.57;52380.84;5048470;28;19974;-68
2024/03/30 09:06:11;;;;;;;;;;;;;;;-144.99;81.19;52346.19;5041473;28;20352;-68
2024/03/30 09:08:36;;;;;;;;;;;;;;;-144.99;80.26;52362.50;5045251;28;20358;-68
2024/03/30 09:11:03;;;;;;;;;;;;;;;-144.99;79.62;52360.44;5047345;28;20008;-68
2024/03/30 09:13:28;;;;;;;;;;;;;;;-144.99;78.90;52368.59;5041720;28;19983;-68
2024/03/30 09:15:56;;;;;;;;;;;;;;;-144.99;78.90;52338.03;5039520;28;19965;-67
2024/03/30 09:18:23;;;;;;;;;;;;;;;-144.99;78.62;52325.81;5054219;28;20004;-69
2024/03/30 09:20:49;;;;;;;;;;;;;;;-144.99;78.05;52350.25;5061995;28;19968;-74
2024/03/30 09:23:15;;;;;;;;;;;;;;;-144.99;77.95;52340.06;5042309;28;19972;-72
2024/03/30 09:25:41;;;;;;;;;;;;;;;-144.99;78.00;52366.56;5032093;28;19975;-72
2024/03/30 09:28:07;;;;;;;;;;;;;;;-144.99;77.25;52307.47;5057457;28;19932;-72
2024/03/30 09:30:33;;;;;;;;;;;;;;;-144.99;76.51;52325.81;5047012;28;19924;-72
2024/03/30 09:33:01;;;;;;;;;;;;;;;-144.99;75.97;52309.50;5048281;28;20425;-72
2024/03/30 09:35:27;;;;;;;;;;;;;;;-144.99;74.35;52305.41;5041601;28;20019;-72
2024/03/30 09:37:53;;;;;;;;;;;;;;;-144.99;74.07;52325.81;5048654;28;20016;-71
2024/03/30 09:40:19;;;;;;;;;;;;;;;-144.99;73.26;52338.03;5038847;28;20472;-72
2024/03/30 09:42:46;;;;;;;;;;;;;;;-144.99;73.85;52352.28;5049246;28;19944;-72
2024/03/30 09:45:13;;;;;;;;;;;;;;;-144.99;73.73;52309.50;5040330;28;19929;-72
2024/03/30 09:47:39;;;;;;;;;;;;;;;-144.99;73.50;52313.56;5055617;28;20413;-71
2024/03/30 09:50:08;;;;;;;;;;;;;;;-144.99;73.72;52325.81;5038635;28;20275;-71
2024/03/30 09:52:36;;;;;;;;;;;;;;;-144.99;73.20;52309.50;5048756;28;20375;-71
2024/03/30 09:55:08;;;;;;;;;;;;;;;-144.99;73.54;52366.56;5051583;28;19925;-71
2024/03/30 09:57:34;;;;;;;;;;;;;;;-144.99;73.76;52370.63;5056452;22;19925;-70
2024/03/30 10:00:01;;;;;;;;;;;;;;;-144.99;73.74;52309.50;5051528;28;19924;-70
2024/03/30 10:02:26;;;;;;;;;;;;;;;-144.99;73.30;52299.31;5048240;28;20019;-72
2024/03/30 10:04:55;;;;;;;;;;;;;;;-144.99;72.85;52325.81;5046263;28;20012;-71
2024/03/30 10:07:27;;;;;;;;;;;;;;;-144.99;72.08;52313.56;5042898;28;20393;-71
2024/03/30 10:09:56;;;;;;;;;;;;;;;-144.99;71.39;52331.91;5029145;28;20385;-72
2024/03/30 10:12:29;;;;;;;;;;;;;;;-144.99;71.00;52344.16;5028955;28;19960;-72
2024/03/30 10:14:58;;;;;;;;;;;;;;;-144.99;71.69;52350.25;5025121;28;19932;-71
2024/03/30 10:17:24;;;;;;;;;;;;;;;-144.99;72.45;52354.34;5020319;28;19929;-70
2024/03/30 10:19:53;;;;;;;;;;;;;;;-144.99;73.94;52419.56;5027701;28;19972;-70
2024/03/30 10:22:18;;;;;;;;;;;;;;;-144.99;75.13;52386.94;5028922;28;20004;-74
2024/03/30 10:24:46;;;;;;;;;;;;;;;-144.99;75.60;52358.41;5027278;28;20119;-72
2024/03/30 10:27:12;;;;;;;;;;;;;;;-144.99;75.93;52321.72;5031184;28;19926;-72
2024/03/30 10:29:38;;;;;;;;;;;;;;;-144.99;75.24;52325.81;5043743;28;20401;-72
2024/03/30 10:32:07;;;;;;;;;;;;;;;-144.99;74.02;52333.94;5042031;28;20044;-71
2024/03/30 10:34:34;;;;;;;;;;;;;;;-144.99;73.63;52352.28;5044166;28;19967;-73
2024/03/30 10:36:59;;;;;;;;;;;;;;;-144.99;72.70;52309.50;5035209;28;19925;-70
2024/03/30 10:39:28;;;;;;;;;;;;;;;-144.99;72.56;52299.31;5023869;28;20026;-72
2024/03/30 10:41:55;;;;;;;;;;;;;;;-144.99;71.77;52313.56;5026424;28;20044;-71
2024/03/30 10:44:25;;;;;;;;;;;;;;;-144.99;71.55;52333.94;5033726;28;20368;-72
2024/03/30 10:46:51;;;;;;;;;;;;;;;-144.99;71.57;52276.88;5043107;28;19975;-72
2024/03/30 10:49:17;;;;;;;;;;;;;;;-144.99;71.28;52270.78;5037630;28;20416;-72
2024/03/30 10:51:43;;;;;;;;;;;;;;;-144.99;70.92;52313.56;5031178;28;19965;-72
2024/03/30 10:54:13;;;;;;;;;;;;;;;-144.99;70.76;52280.97;5036621;28;20358;-71
2024/03/30 10:56:47;;;;;;;;;;;;;;;-144.99;70.71;52264.66;5025437;28;20010;-72
2024/03/30 10:59:16;;;;;;;;;;;;;;;-144.99;69.43;52236.13;5036712;28;19964;-72
2024/03/30 11:01:42;;;;;;;;;;;;;;;-144.99;69.08;52209.63;5037944;28;20329;-71
2024/03/30 11:04:13;;;;;;;;;;;;;;;-144.99;68.52;52236.13;5037134;28;19986;-73
2024/03/30 11:06:39;;;;;;;;;;;;;;;-144.99;68.35;52219.81;5025475;28;19979;-72
2024/03/30 11:09:06;;;;;;;;;;;;;;;-144.99;67.96;52252.44;5028512;28;19928;-72
2024/03/30 11:11:32;;;;;;;;;;;;;;;-144.99;67.59;52293.19;5039861;28;19929;-73
2024/03/30 11:13:59;;;;;;;;;;;;;;;-144.99;69.85;52329.88;5035350;28;19925;-71
2024/03/30 11:16:28;;;;;;;;;;;;;;;-144.99;70.05;52317.66;5029268;28;19925;-71
2024/03/30 11:19:00;;;;;;;;;;;;;;;-144.99;70.54;52344.16;5031748;28;19924;-71
2024/03/30 11:21:26;;;;;;;;;;;;;;;-144.99;71.28;52368.59;5028748;28;19953;-72
2024/03/30 11:23:56;;;;;;;;;;;;;;;-144.99;71.78;52362.50;5035395;28;19925;-72
2024/03/30 11:26:22;;;;;;;;;;;;;;;-144.99;71.99;52313.56;5045720;28;19996;-71
2024/03/30 11:28:51;;;;;;;;;;;;;;;-144.99;72.03;52362.50;5028631;28;19925;-73
2024/03/30 11:31:21;;;;;;;;;;;;;;;-144.99;72.55;52358.41;5029970;28;19948;-72
2024/03/30 11:33:52;;;;;;;;;;;;;;;-144.99;72.79;52366.56;5044466;28;19925;-70
2024/03/30 11:36:21;;;;;;;;;;;;;;;-144.99;72.73;52350.25;5036336;28;20023;-73
2024/03/30 11:38:52;;;;;;;;;;;;;;;-144.99;73.24;52358.41;5025337;28;19933;-72
2024/03/30 11:41:18;;;;;;;;;;;;;;;-144.99;73.26;52333.94;5028238;28;20020;-73
2024/03/30 11:43:46;;;;;;;;;;;;;;;-144.99;73.37;52380.84;5038191;28;20485;-71
2024/03/30 11:46:12;;;;;;;;;;;;;;;-144.99;73.68;52342.09;5038120;28;19948;-71
2024/03/30 11:48:40;;;;;;;;;;;;;;;-144.99;73.47;52356.38;5033085;28;19929;-72
2024/03/30 11:51:15;;;;;;;;;;;;;;;-144.99;73.59;52358.41;5034049;28;20165;-73
2024/03/30 11:53:42;;;;;;;;;;;;;;;-144.99;73.33;52321.72;5036085;28;19928;-70
2024/03/30 11:56:09;;;;;;;;;;;;;;;-144.99;73.02;52354.34;5041631;28;19935;-71
2024/03/30 11:58:35;;;;;;;;;;;;;;;-144.99;72.38;52354.34;5038826;28;20023;-70
2024/03/30 12:01:01;;;;;;;;;;;;;;;-144.99;72.48;52321.72;5026063;28;19925;-70
2024/03/30 12:03:28;;;;;;;;;;;;;;;-144.99;72.03;52354.34;5025671;28;19929;-71
2024/03/30 12:05:55;;;;;;;;;;;;;;;-144.99;71.87;52325.81;5032844;28;20409;-71
2024/03/30 12:08:23;;;;;;;;;;;;;;;-144.99;71.86;52346.19;5029962;28;19925;-71
2024/03/30 12:10:52;;;;;;;;;;;;;;;-144.99;71.17;52329.88;5027814;28;19971;-71
2024/03/30 12:13:21;;;;;;;;;;;;;;;-144.99;70.69;52331.91;5026227;28;19933;-71
2024/03/30 12:15:46;;;;;;;;;;;;;;;-144.99;70.44;52305.41;5026298;28;20031;-72
2024/03/30 12:18:13;;;;;;;;;;;;;;;-144.99;70.23;52386.94;5023722;28;20337;-72
2024/03/30 12:20:39;;;;;;;;;;;;;;;-144.99;69.37;52336.00;5028344;28;19925;-72